Time;durP1;ratioP1;P1;durP2;ratioP2;P2;SDS_P1;SDS_P2;PMS_P1;PMS_P2;Temp;Humidity;BMP_temperature;BMP_pressure;BME280_temperature;BME280_humidity;BME280_pressure;Samples;Min_cycle;Max_cycle;Signal;HPM_P1;HPM_P2
2021/11/16 00:00:31;;;;;;;;;;;;;;;4.87;100.00;96465.84;5097157;28;20004;-83
2021/11/16 00:02:56;;;;;;;;;;;;;;;4.93;100.00;96464.28;5095200;28;19924;-84
2021/11/16 00:05:24;;;;;;;;;;;;;;;4.93;100.00;96470.28;5111958;28;19924;-83
2021/11/16 00:07:52;;;;;;;;;;;;;;;4.94;100.00;96461.47;5090426;28;19924;-81
2021/11/16 00:10:21;;;;;;;;;;;;;;;4.99;100.00;96460.88;5094674;28;19933;-83
2021/11/16 00:12:46;;;;;;;;;;;;;;;4.95;100.00;96468.31;5092956;28;19928;-82
2021/11/16 00:15:13;;;;;;;;;;;;;;;4.97;100.00;96476.72;5100405;28;19985;-82
2021/11/16 00:17:38;;;;;;;;;;;;;;;4.91;100.00;96467.06;5091346;28;19925;-83
2021/11/16 00:20:06;;;;;;;;;;;;;;;4.95;100.00;96470.91;5095390;28;19924;-83
2021/11/16 00:22:34;;;;;;;;;;;;;;;5.02;100.00;96467.53;5103780;28;19924;-81
2021/11/16 00:27:32;;;;;;;;;;;;;;;4.94;100.00;96471.88;5115980;28;19924;-82
2021/11/16 00:29:57;;;;;;;;;;;;;;;4.98;100.00;96467.09;5101558;28;19947;-80
2021/11/16 00:32:24;;;;;;;;;;;;;;;4.93;100.00;96466.88;5094561;28;19924;-81
2021/11/16 00:34:50;;;;;;;;;;;;;;;4.90;100.00;96470.69;5074427;28;19924;-79
2021/11/16 00:37:16;;;;;;;;;;;;;;;4.82;100.00;96470.84;5090005;28;19935;-80
2021/11/16 00:39:44;;;;;;;;;;;;;;;4.82;100.00;96470.84;5097569;28;20407;-77
2021/11/16 00:42:10;;;;;;;;;;;;;;;4.86;100.00;96472.06;5081859;28;20443;-77
2021/11/16 00:44:35;;;;;;;;;;;;;;;4.83;100.00;96469.81;5079720;28;19959;-77
2021/11/16 00:47:00;;;;;;;;;;;;;;;4.87;100.00;96473.66;5078239;28;20031;-78
2021/11/16 00:49:27;;;;;;;;;;;;;;;4.91;100.00;96479.31;5081338;28;20003;-78
2021/11/16 00:51:53;;;;;;;;;;;;;;;4.85;100.00;96480.88;5098763;28;19928;-77
2021/11/16 00:54:18;;;;;;;;;;;;;;;4.86;100.00;96476.47;5078778;28;20363;-78
2021/11/16 00:56:43;;;;;;;;;;;;;;;4.98;100.00;96475.72;5083157;28;19924;-78
2021/11/16 00:59:09;;;;;;;;;;;;;;;4.94;100.00;96479.72;5101541;28;19967;-78
2021/11/16 01:01:34;;;;;;;;;;;;;;;4.97;100.00;96478.53;5090881;28;20468;-78
2021/11/16 01:04:00;;;;;;;;;;;;;;;4.99;100.00;96484.34;5078258;28;20038;-77
2021/11/16 01:06:27;;;;;;;;;;;;;;;4.96;100.00;96477.72;5078464;28;19936;-77
2021/11/16 01:08:52;;;;;;;;;;;;;;;5.02;100.00;96470.94;5077647;28;19925;-76
2021/11/16 01:11:18;;;;;;;;;;;;;;;5.05;100.00;96473.13;5089327;28;20030;-77
2021/11/16 01:13:43;;;;;;;;;;;;;;;5.10;100.00;96475.16;5101584;28;19931;-78
2021/11/16 01:16:10;;;;;;;;;;;;;;;5.07;100.00;96476.38;5083189;28;19924;-77
2021/11/16 01:18:36;;;;;;;;;;;;;;;5.05;100.00;96485.38;5082487;28;19943;-78
2021/11/16 01:21:01;;;;;;;;;;;;;;;5.10;100.00;96483.00;5101868;28;19924;-78
2021/11/16 01:23:28;;;;;;;;;;;;;;;5.11;100.00;96479.38;5105500;28;20003;-77
2021/11/16 01:25:55;;;;;;;;;;;;;;;5.12;100.00;96475.78;5087301;28;19978;-77
2021/11/16 01:28:25;;;;;;;;;;;;;;;5.14;100.00;96481.59;5087264;28;19935;-77
2021/11/16 01:30:52;;;;;;;;;;;;;;;5.03;100.00;96487.38;5108037;28;19931;-77
2021/11/16 01:33:26;;;;;;;;;;;;;;;5.06;100.00;96495.63;5087505;28;19924;-78
2021/11/16 01:35:52;;;;;;;;;;;;;;;5.07;100.00;96492.03;5085694;28;19982;-77
2021/11/16 01:38:19;;;;;;;;;;;;;;;5.11;100.00;96480.22;5079657;28;19931;-77
2021/11/16 01:40:47;;;;;;;;;;;;;;;5.10;100.00;96480.38;5092317;28;20475;-77
2021/11/16 01:43:14;;;;;;;;;;;;;;;5.15;100.00;96481.41;5079590;28;20273;-77
2021/11/16 01:45:42;;;;;;;;;;;;;;;5.14;100.00;96473.78;5078072;28;19924;-77
2021/11/16 01:48:11;;;;;;;;;;;;;;;5.10;100.00;96472.56;5092703;28;20360;-77
2021/11/16 01:50:41;;;;;;;;;;;;;;;5.01;100.00;96469.34;5077391;28;20035;-77
2021/11/16 01:53:06;;;;;;;;;;;;;;;5.08;100.00;96464.94;5078255;28;19928;-77
2021/11/16 01:55:31;;;;;;;;;;;;;;;4.95;100.00;96459.66;5098225;28;20378;-76
2021/11/16 01:58:01;;;;;;;;;;;;;;;5.13;100.00;96461.75;5096096;28;19931;-76
2021/11/16 02:00:27;;;;;;;;;;;;;;;4.96;100.00;96448.25;5076204;28;19981;-77
2021/11/16 02:02:53;;;;;;;;;;;;;;;5.06;100.00;96460.91;5077941;28;20422;-77
2021/11/16 02:05:18;;;;;;;;;;;;;;;5.15;100.00;96464.97;5100788;28;19920;-78
2021/11/16 02:07:44;;;;;;;;;;;;;;;5.16;100.00;96471.78;5095816;28;19928;-78
2021/11/16 02:10:10;;;;;;;;;;;;;;;5.00;100.00;96473.75;5080203;28;19924;-78
2021/11/16 02:12:35;;;;;;;;;;;;;;;4.86;100.00;96479.88;5079696;28;20060;-77
2021/11/16 02:15:04;;;;;;;;;;;;;;;4.88;100.00;96475.28;5087289;28;19925;-78
2021/11/16 02:17:31;;;;;;;;;;;;;;;4.87;100.00;96468.44;5093074;28;19924;-78
2021/11/16 02:19:57;;;;;;;;;;;;;;;4.86;100.00;96466.84;5093824;28;19916;-77
2021/11/16 02:22:24;;;;;;;;;;;;;;;4.82;100.00;96465.63;5096495;28;19919;-76
2021/11/16 02:24:49;;;;;;;;;;;;;;;4.84;100.00;96463.63;5107130;27;19931;-77
2021/11/16 02:27:15;;;;;;;;;;;;;;;5.02;100.00;96460.50;5099480;28;19925;-76
2021/11/16 02:29:40;;;;;;;;;;;;;;;5.10;100.00;96462.94;5076473;28;20296;-76
2021/11/16 02:32:06;;;;;;;;;;;;;;;5.23;100.00;96462.19;5095683;28;19970;-76
2021/11/16 02:34:32;;;;;;;;;;;;;;;5.16;100.00;96458.75;5097320;27;20403;-77
2021/11/16 02:36:57;;;;;;;;;;;;;;;5.25;100.00;96454.97;5081695;28;19925;-80
2021/11/16 02:39:24;;;;;;;;;;;;;;;5.34;99.20;96458.22;5076993;28;20416;-79
2021/11/16 02:41:50;;;;;;;;;;;;;;;5.48;98.92;96450.19;5086877;28;19924;-79
2021/11/16 02:44:18;;;;;;;;;;;;;;;5.18;99.44;96454.94;5088088;28;19913;-79
2021/11/16 02:46:44;;;;;;;;;;;;;;;4.95;100.00;96450.06;5084666;28;19925;-79
2021/11/16 02:49:10;;;;;;;;;;;;;;;4.91;100.00;96448.03;5086079;28;19925;-78
2021/11/16 02:51:36;;;;;;;;;;;;;;;4.92;100.00;96445.22;5091646;28;19955;-80
2021/11/16 02:54:09;;;;;;;;;;;;;;;4.96;100.00;96445.66;5098335;28;19958;-80
2021/11/16 02:56:36;;;;;;;;;;;;;;;4.91;100.00;96446.22;5089476;28;19991;-80
2021/11/16 02:59:02;;;;;;;;;;;;;;;4.86;100.00;96456.44;5088366;28;19924;-79
2021/11/16 03:01:31;;;;;;;;;;;;;;;4.93;100.00;96452.03;5102130;28;19961;-79
2021/11/16 03:03:56;;;;;;;;;;;;;;;5.03;100.00;96443.06;5111221;28;20018;-79
2021/11/16 03:06:22;;;;;;;;;;;;;;;5.04;100.00;96455.88;5111135;28;19969;-79
2021/11/16 03:08:48;;;;;;;;;;;;;;;4.92;100.00;96450.44;5092837;28;19943;-80
2021/11/16 03:11:15;;;;;;;;;;;;;;;4.86;100.00;96451.22;5091191;28;19980;-83
2021/11/16 03:13:43;;;;;;;;;;;;;;;4.84;100.00;96458.41;5106444;28;19934;-80
2021/11/16 03:16:10;;;;;;;;;;;;;;;4.86;100.00;96447.81;5103029;28;19935;-82
2021/11/16 03:18:38;;;;;;;;;;;;;;;4.84;100.00;96442.75;5092830;28;19924;-82
2021/11/16 03:21:03;;;;;;;;;;;;;;;4.65;100.00;96443.50;5111783;28;19939;-83
2021/11/16 03:23:29;;;;;;;;;;;;;;;4.78;100.00;96438.31;5088491;28;20377;-79
2021/11/16 03:26:02;;;;;;;;;;;;;;;4.75;100.00;96443.94;5099258;28;20396;-79
2021/11/16 03:28:29;;;;;;;;;;;;;;;4.66;100.00;96439.88;5103403;28;19925;-81
2021/11/16 03:30:59;;;;;;;;;;;;;;;4.66;100.00;96442.47;5093868;28;19948;-79
2021/11/16 03:33:25;;;;;;;;;;;;;;;4.53;100.00;96440.63;5109948;28;19924;-78
2021/11/16 03:35:50;;;;;;;;;;;;;;;4.58;100.00;96437.44;5112921;28;19912;-80
2021/11/16 03:38:18;;;;;;;;;;;;;;;4.50;100.00;96433.19;5105471;28;19944;-77
2021/11/16 03:40:44;;;;;;;;;;;;;;;4.59;100.00;96436.44;5111073;28;19924;-83
2021/11/16 03:43:10;;;;;;;;;;;;;;;4.56;100.00;96435.00;5088470;28;19925;-82
2021/11/16 03:45:37;;;;;;;;;;;;;;;4.48;100.00;96443.00;5088875;28;19924;-79
2021/11/16 03:48:04;;;;;;;;;;;;;;;4.48;100.00;96443.78;5098097;28;20067;-78
2021/11/16 03:50:33;;;;;;;;;;;;;;;4.46;100.00;96456.19;5100100;28;19924;-81
2021/11/16 03:53:01;;;;;;;;;;;;;;;4.45;100.00;96449.38;5108458;28;19924;-79
2021/11/16 03:55:29;;;;;;;;;;;;;;;4.48;100.00;96454.22;5085551;28;19970;-80
2021/11/16 03:57:58;;;;;;;;;;;;;;;4.40;100.00;96451.75;5092237;28;19935;-82
2021/11/16 04:00:25;;;;;;;;;;;;;;;4.32;100.00;96448.50;5092141;28;19959;-78
2021/11/16 04:02:53;;;;;;;;;;;;;;;4.50;100.00;96435.78;5091486;28;19924;-78
2021/11/16 04:05:23;;;;;;;;;;;;;;;4.37;100.00;96435.72;5099461;28;19924;-78
2021/11/16 04:07:49;;;;;;;;;;;;;;;4.33;100.00;96452.72;5079973;28;20391;-76
2021/11/16 04:10:14;;;;;;;;;;;;;;;4.32;100.00;96454.50;5072706;28;19947;-77
2021/11/16 04:12:40;;;;;;;;;;;;;;;4.38;100.00;96453.75;5074243;28;20380;-76
2021/11/16 04:15:07;;;;;;;;;;;;;;;4.34;100.00;96462.13;5088041;28;19927;-78
2021/11/16 04:17:33;;;;;;;;;;;;;;;4.30;100.00;96471.31;5089786;28;19962;-79
2021/11/16 04:19:59;;;;;;;;;;;;;;;4.22;100.00;96470.47;5087823;28;19931;-79
2021/11/16 04:22:26;;;;;;;;;;;;;;;4.26;100.00;96464.88;5086681;28;19995;-79
2021/11/16 04:24:54;;;;;;;;;;;;;;;4.27;100.00;96472.50;5090232;28;19934;-80
2021/11/16 04:27:19;;;;;;;;;;;;;;;4.31;100.00;96465.94;5089044;28;19920;-82
2021/11/16 04:29:48;;;;;;;;;;;;;;;4.30;100.00;96471.31;5092954;28;19932;-80
2021/11/16 04:32:14;;;;;;;;;;;;;;;4.28;100.00;96466.28;5084605;28;20323;-77
2021/11/16 04:34:39;;;;;;;;;;;;;;;4.16;100.00;96460.81;5105371;27;19928;-78
2021/11/16 04:37:05;;;;;;;;;;;;;;;4.26;100.00;96465.69;5099248;28;19924;-77
2021/11/16 04:39:34;;;;;;;;;;;;;;;4.25;100.00;96471.91;5085486;28;20003;-81
2021/11/16 04:42:00;;;;;;;;;;;;;;;4.30;100.00;96472.09;5094595;28;19942;-82
2021/11/16 04:44:25;;;;;;;;;;;;;;;4.26;100.00;96478.72;5096412;28;19952;-82
2021/11/16 04:46:51;;;;;;;;;;;;;;;4.22;100.00;96472.25;5098565;28;20378;-80
2021/11/16 04:49:31;;;;;;;;;;;;;;;4.16;100.00;96460.81;5097491;28;20253;-82
2021/11/16 04:52:46;;;;;;;;;;;;;;;4.14;100.00;96457.59;5116841;28;19928;-79
2021/11/16 05:02:41;;;;;;;;;;;;;;;4.18;100.00;96464.00;5095228;28;19929;-82
2021/11/16 05:05:09;;;;;;;;;;;;;;;4.21;100.00;96457.63;5094503;28;19939;-82
2021/11/16 05:07:37;;;;;;;;;;;;;;;4.22;100.00;96460.03;5092794;28;19925;-82
2021/11/16 05:10:06;;;;;;;;;;;;;;;4.09;100.00;96459.97;5090216;28;19924;-82
2021/11/16 05:12:32;;;;;;;;;;;;;;;4.10;100.00;96451.16;5089448;28;19924;-82
2021/11/16 05:15:00;;;;;;;;;;;;;;;4.11;100.00;96449.34;5094127;27;19928;-81
2021/11/16 05:17:26;;;;;;;;;;;;;;;4.12;100.00;96443.16;5092066;28;19931;-80
2021/11/16 05:19:52;;;;;;;;;;;;;;;4.14;100.00;96456.75;5111235;28;19908;-81
2021/11/16 05:22:18;;;;;;;;;;;;;;;4.05;100.00;96460.53;5109583;28;19924;-81
2021/11/16 05:24:43;;;;;;;;;;;;;;;4.08;100.00;96462.72;5093090;28;19993;-80
2021/11/16 05:27:14;;;;;;;;;;;;;;;4.10;100.00;96455.56;5092647;28;20048;-81
2021/11/16 05:29:42;;;;;;;;;;;;;;;4.07;100.00;96448.09;5094980;28;19924;-80
2021/11/16 05:32:08;;;;;;;;;;;;;;;4.15;100.00;96455.81;5100518;28;19940;-82
2021/11/16 05:34:33;;;;;;;;;;;;;;;4.17;100.00;96452.00;5110250;28;20276;-81
2021/11/16 05:36:59;;;;;;;;;;;;;;;4.14;100.00;96451.56;5101053;28;19925;-82
2021/11/16 05:39:24;;;;;;;;;;;;;;;4.11;100.00;96451.94;5095961;28;19924;-79
2021/11/16 05:41:50;;;;;;;;;;;;;;;4.10;100.00;96458.97;5112730;28;19924;-81
2021/11/16 05:44:18;;;;;;;;;;;;;;;4.06;100.00;96455.13;5091030;28;19928;-81
2021/11/16 05:46:43;;;;;;;;;;;;;;;4.10;100.00;96452.94;5096597;28;19908;-82
2021/11/16 05:49:08;;;;;;;;;;;;;;;4.12;100.00;96453.56;5117938;27;20018;-79
2021/11/16 05:51:35;;;;;;;;;;;;;;;4.15;100.00;96454.00;5083099;28;19924;-81
2021/11/16 05:54:02;;;;;;;;;;;;;;;4.12;100.00;96453.56;5106171;28;19975;-78
2021/11/16 05:56:28;;;;;;;;;;;;;;;4.02;100.00;96448.66;5113337;28;20161;-80
2021/11/16 05:58:55;;;;;;;;;;;;;;;4.10;100.00;96455.56;5099900;28;19952;-78
2021/11/16 06:01:24;;;;;;;;;;;;;;;4.16;100.00;96449.59;5099661;28;19912;-83
2021/11/16 06:03:52;;;;;;;;;;;;;;;4.10;100.00;96445.16;5091987;28;20000;-81
2021/11/16 06:06:18;;;;;;;;;;;;;;;4.05;100.00;96457.91;5108995;28;19928;-83
2021/11/16 06:08:44;;;;;;;;;;;;;;;4.34;100.00;96441.28;5087185;28;20272;-79
2021/11/16 06:11:09;;;;;;;;;;;;;;;4.33;100.00;96450.09;5093026;28;19936;-81
2021/11/16 06:13:35;;;;;;;;;;;;;;;4.21;100.00;96445.44;5093663;28;19946;-81
2021/11/16 06:16:00;;;;;;;;;;;;;;;4.20;100.00;96450.81;5108520;28;19939;-82
2021/11/16 06:18:27;;;;;;;;;;;;;;;4.18;100.00;96461.41;5108924;28;19924;-84
2021/11/16 06:20:53;;;;;;;;;;;;;;;4.36;100.00;96460.97;5107327;28;19924;-83
2021/11/16 06:23:21;;;;;;;;;;;;;;;4.32;100.00;96459.72;5086216;28;19924;-79
2021/11/16 06:25:46;;;;;;;;;;;;;;;4.24;100.00;96461.66;5087821;28;19924;-80
2021/11/16 06:28:12;;;;;;;;;;;;;;;4.08;100.00;96457.53;5090558;28;19935;-78
2021/11/16 06:30:40;;;;;;;;;;;;;;;4.15;100.00;96464.41;5090998;28;19924;-79
2021/11/16 06:33:06;;;;;;;;;;;;;;;4.17;100.00;96459.00;5090184;28;20352;-78
2021/11/16 06:35:34;;;;;;;;;;;;;;;4.07;100.00;96461.13;5083672;28;19939;-79
2021/11/16 06:37:59;;;;;;;;;;;;;;;3.96;100.00;96462.44;5085987;28;19925;-79
2021/11/16 06:40:26;;;;;;;;;;;;;;;4.09;100.00;96462.56;5088599;28;19928;-78
2021/11/16 06:42:54;;;;;;;;;;;;;;;4.14;100.00;96462.81;5093335;28;19912;-80
2021/11/16 06:45:20;;;;;;;;;;;;;;;4.16;100.00;96462.59;5090848;28;20003;-78
2021/11/16 06:47:45;;;;;;;;;;;;;;;4.26;100.00;96454.47;5106943;28;20296;-79
2021/11/16 06:50:11;;;;;;;;;;;;;;;4.18;100.00;96463.22;5100460;28;20094;-80
2021/11/16 06:52:41;;;;;;;;;;;;;;;4.31;100.00;96468.53;5093375;28;20011;-78
2021/11/16 06:55:08;;;;;;;;;;;;;;;4.13;100.00;96476.00;5093236;28;19992;-83
2021/11/16 06:57:33;;;;;;;;;;;;;;;4.27;100.00;96477.72;5095750;28;19926;-79
2021/11/16 06:59:58;;;;;;;;;;;;;;;4.21;100.00;96478.47;5095162;28;19972;-81
2021/11/16 07:02:24;;;;;;;;;;;;;;;4.29;100.00;96488.72;5094225;28;19925;-84
2021/11/16 07:04:54;;;;;;;;;;;;;;;4.38;100.00;96479.78;5099753;28;19924;-84
2021/11/16 07:07:20;;;;;;;;;;;;;;;4.23;100.00;96481.69;5105747;28;19925;-85
2021/11/16 07:09:50;;;;;;;;;;;;;;;4.25;100.00;96479.72;5097458;28;19912;-89
2021/11/16 07:12:19;;;;;;;;;;;;;;;4.25;100.00;96479.72;5082230;28;19942;-84
2021/11/16 07:14:44;;;;;;;;;;;;;;;4.20;100.00;96482.88;5105635;28;20014;-83
2021/11/16 07:17:15;;;;;;;;;;;;;;;4.17;100.00;96491.06;5116811;27;19912;-82
2021/11/16 07:19:41;;;;;;;;;;;;;;;4.15;100.00;96490.44;5095556;28;19925;-76
2021/11/16 07:22:10;;;;;;;;;;;;;;;4.22;100.00;96486.09;5080133;28;20015;-75
2021/11/16 07:24:44;;;;;;;;;;;;;;;4.33;100.00;96492.56;5076315;28;19939;-76
2021/11/16 07:27:11;;;;;;;;;;;;;;;4.47;100.00;96499.50;5075300;28;20056;-76
2021/11/16 07:29:38;;;;;;;;;;;;;;;4.62;100.00;96501.97;5078512;28;19960;-76
2021/11/16 07:32:05;;;;;;;;;;;;;;;4.46;100.00;96503.06;5079556;28;19931;-76
2021/11/16 07:34:32;;;;;;;;;;;;;;;4.54;100.00;96506.56;5063564;28;19924;-75
2021/11/16 07:36:59;;;;;;;;;;;;;;;4.50;100.00;96507.91;5076058;28;20022;-76
2021/11/16 07:39:25;;;;;;;;;;;;;;;4.41;100.00;96508.06;5076653;28;20055;-76
2021/11/16 07:41:53;;;;;;;;;;;;;;;4.47;100.00;96515.13;5056176;28;19924;-76
2021/11/16 07:44:20;;;;;;;;;;;;;;;4.51;100.00;96520.75;5076776;28;20346;-76
2021/11/16 07:46:53;;;;;;;;;;;;;;;4.67;100.00;96517.03;5076693;28;19924;-77
2021/11/16 07:49:18;;;;;;;;;;;;;;;4.45;100.00;96519.69;5096353;28;19983;-76
2021/11/16 07:51:46;;;;;;;;;;;;;;;4.46;100.00;96518.69;5091956;28;19967;-76
2021/11/16 07:54:12;;;;;;;;;;;;;;;4.41;100.00;96525.47;5096165;28;19959;-76
2021/11/16 07:56:37;;;;;;;;;;;;;;;4.42;100.00;96517.50;5095038;28;20057;-76
2021/11/16 07:59:06;;;;;;;;;;;;;;;4.47;100.00;96509.91;5094639;28;19924;-76
2021/11/16 08:02:11;;;;;;;;;;;;;;;4.47;100.00;96516.94;5075519;28;19924;-76
2021/11/16 08:04:31;;;;;;;;;;;;;;;4.44;100.00;96523.31;5073296;28;19925;-77
2021/11/16 08:07:15;;;;;;;;;;;;;;;4.41;100.00;96515.88;5097652;28;20360;-74
2021/11/16 08:09:48;;;;;;;;;;;;;;;4.56;100.00;96518.38;5095004;28;19923;-75
2021/11/16 08:12:34;;;;;;;;;;;;;;;4.58;100.00;96505.97;5077121;28;20015;-76
2021/11/16 08:15:03;;;;;;;;;;;;;;;4.53;100.00;96518.78;5094490;28;20027;-76
2021/11/16 08:17:31;;;;;;;;;;;;;;;4.45;100.00;96519.69;5094121;28;19935;-76
2021/11/16 08:19:57;;;;;;;;;;;;;;;4.56;100.00;96517.56;5086025;28;19931;-77
2021/11/16 08:22:23;;;;;;;;;;;;;;;4.57;100.00;96513.97;5081792;28;19932;-76
2021/11/16 08:24:49;;;;;;;;;;;;;;;4.55;100.00;96532.41;5098072;28;20310;-76
2021/11/16 08:27:15;;;;;;;;;;;;;;;4.56;100.00;96533.22;5085212;28;20001;-75
2021/11/16 08:29:42;;;;;;;;;;;;;;;4.59;100.00;96522.41;5081346;28;20365;-77
2021/11/16 08:32:14;;;;;;;;;;;;;;;4.54;100.00;96525.59;5098837;28;20018;-77
2021/11/16 08:34:42;;;;;;;;;;;;;;;4.70;100.00;96527.91;5080185;28;19961;-76
2021/11/16 08:37:08;;;;;;;;;;;;;;;4.67;100.00;96522.25;5081287;28;19972;-78
2021/11/16 08:39:36;;;;;;;;;;;;;;;4.69;100.00;96533.31;5058858;28;19996;-77
2021/11/16 08:42:07;;;;;;;;;;;;;;;4.62;100.00;96527.22;5075902;28;19924;-76
2021/11/16 08:44:37;;;;;;;;;;;;;;;4.69;100.00;96522.88;5089609;28;19924;-77
2021/11/16 08:47:11;;;;;;;;;;;;;;;4.68;100.00;96522.09;5093208;28;20022;-77
2021/11/16 08:49:40;;;;;;;;;;;;;;;4.80;100.00;96519.75;5084084;28;19924;-77
2021/11/16 08:52:14;;;;;;;;;;;;;;;4.80;99.75;96514.53;5080767;28;19958;-77
2021/11/16 08:54:40;;;;;;;;;;;;;;;4.80;100.00;96521.56;5078699;28;20358;-76
2021/11/16 08:57:15;;;;;;;;;;;;;;;4.87;99.58;96520.59;5091328;28;19912;-75
2021/11/16 08:59:41;;;;;;;;;;;;;;;4.87;99.28;96515.38;5113520;28;20002;-76
2021/11/16 09:02:09;;;;;;;;;;;;;;;4.76;99.68;96513.31;5095715;28;19928;-76
2021/11/16 09:04:37;;;;;;;;;;;;;;;4.71;99.81;96515.69;5111658;28;19932;-76
2021/11/16 09:07:14;;;;;;;;;;;;;;;4.69;96.79;96515.88;5104785;28;20280;-76
2021/11/16 09:09:51;;;;;;;;;;;;;;;4.72;96.28;96510.25;5083055;28;19925;-76
2021/11/16 09:12:17;;;;;;;;;;;;;;;4.83;95.56;96502.91;5087543;28;19995;-76
2021/11/16 09:14:50;;;;;;;;;;;;;;;4.85;95.95;96496.53;5097183;28;19951;-75
2021/11/16 09:17:18;;;;;;;;;;;;;;;4.85;96.64;96490.50;5077234;28;19936;-75
2021/11/16 09:19:43;;;;;;;;;;;;;;;4.85;95.31;96496.53;5090353;28;19928;-76
2021/11/16 09:22:14;;;;;;;;;;;;;;;4.86;94.94;96495.53;5097223;28;20027;-76
2021/11/16 09:24:39;;;;;;;;;;;;;;;4.74;96.08;96497.06;5078960;28;19924;-76
2021/11/16 09:29:32;;;;;;;;;;;;;;;4.97;96.91;96500.19;5078739;28;19988;-76
2021/11/16 09:31:58;;;;;;;;;;;;;;;5.06;96.53;96520.88;5081619;28;19977;-76
2021/11/16 09:34:27;;;;;;;;;;;;;;;5.02;96.59;96509.25;5098264;28;19993;-76
2021/11/16 09:36:54;;;;;;;;;;;;;;;5.06;95.35;96520.88;5096821;28;19943;-77
2021/11/16 09:39:21;;;;;;;;;;;;;;;5.04;95.50;96525.47;5077152;28;19966;-76
2021/11/16 09:41:48;;;;;;;;;;;;;;;5.11;95.98;96536.75;5077790;28;19924;-76
2021/11/16 09:44:16;;;;;;;;;;;;;;;5.21;95.48;96524.16;5077738;28;19924;-76
2021/11/16 09:46:52;;;;;;;;;;;;;;;5.13;95.59;96537.38;5077071;28;19966;-76
2021/11/16 09:49:24;;;;;;;;;;;;;;;4.94;94.42;96542.28;5078594;28;19970;-77
2021/11/16 09:51:57;;;;;;;;;;;;;;;5.02;95.27;96540.53;5094086;28;19924;-76
2021/11/16 09:54:22;;;;;;;;;;;;;;;5.12;95.57;96533.97;5096043;28;20211;-77
2021/11/16 09:57:00;;;;;;;;;;;;;;;5.07;95.88;96530.31;5097358;28;19959;-78
2021/11/16 09:59:27;;;;;;;;;;;;;;;5.14;95.20;96520.72;5080362;28;19924;-76
2021/11/16 10:01:53;;;;;;;;;;;;;;;5.19;95.84;96523.56;5077854;28;20010;-76
2021/11/16 10:04:24;;;;;;;;;;;;;;;5.16;95.91;96524.72;5077218;28;19932;-76
2021/11/16 10:06:50;;;;;;;;;;;;;;;5.21;96.06;96521.53;5089832;28;19924;-76
2021/11/16 10:09:18;;;;;;;;;;;;;;;5.26;95.27;96519.97;5078862;28;19931;-77
2021/11/16 10:11:44;;;;;;;;;;;;;;;5.13;95.47;96517.31;5098417;28;19924;-76
2021/11/16 10:14:17;;;;;;;;;;;;;;;5.12;95.61;96517.50;5076326;28;19935;-77
2021/11/16 10:16:45;;;;;;;;;;;;;;;5.10;95.78;96515.09;5075834;28;20285;-76
2021/11/16 10:19:13;;;;;;;;;;;;;;;5.01;95.75;96516.25;5078568;28;20300;-76
2021/11/16 10:21:39;;;;;;;;;;;;;;;5.00;95.14;96514.63;5076667;28;20069;-76
2021/11/16 10:24:20;;;;;;;;;;;;;;;5.08;95.36;96516.28;5086954;28;19924;-76
2021/11/16 10:26:45;;;;;;;;;;;;;;;5.00;96.04;96523.28;5088549;28;20027;-76
2021/11/16 10:29:15;;;;;;;;;;;;;;;5.11;95.29;96521.09;5076420;28;19971;-76
2021/11/16 10:31:40;;;;;;;;;;;;;;;5.05;95.26;96521.88;5094800;28;19924;-76
2021/11/16 10:34:07;;;;;;;;;;;;;;;4.95;95.36;96520.44;5090053;28;19931;-78
2021/11/16 10:36:32;;;;;;;;;;;;;;;5.02;95.83;96522.28;5074879;28;19932;-77
2021/11/16 10:39:00;;;;;;;;;;;;;;;4.99;95.34;96521.66;5089851;28;19928;-76
2021/11/16 10:41:27;;;;;;;;;;;;;;;4.90;95.46;96517.59;5089129;28;19929;-77
2021/11/16 10:43:54;;;;;;;;;;;;;;;4.92;96.41;96518.22;5076304;28;19924;-76
2021/11/16 10:46:20;;;;;;;;;;;;;;;4.93;96.63;96512.00;5077184;28;19951;-76
2021/11/16 10:48:47;;;;;;;;;;;;;;;5.05;95.94;96508.84;5074038;28;19928;-75
2021/11/16 10:51:16;;;;;;;;;;;;;;;5.09;94.29;96512.69;5088344;28;19924;-76
2021/11/16 10:53:46;;;;;;;;;;;;;;;4.99;94.39;96505.19;5101984;27;19911;-76
2021/11/16 10:56:17;;;;;;;;;;;;;;;4.94;95.05;96504.97;5081644;27;19929;-76
2021/11/16 10:58:43;;;;;;;;;;;;;;;5.02;95.41;96497.00;5078511;28;20388;-76
2021/11/16 11:01:12;;;;;;;;;;;;;;;4.96;95.14;96493.38;5078685;28;19928;-76
2021/11/16 11:03:40;;;;;;;;;;;;;;;5.09;95.41;96507.47;5077704;28;19933;-75
2021/11/16 11:06:07;;;;;;;;;;;;;;;5.21;94.68;96495.47;5080753;28;19923;-77
2021/11/16 11:08:52;;;;;;;;;;;;;;;5.04;94.46;96489.78;5073499;28;19932;-77
2021/11/16 11:11:21;;;;;;;;;;;;;;;5.04;95.40;96491.59;5076543;28;19919;-77
2021/11/16 11:13:47;;;;;;;;;;;;;;;4.93;94.68;96493.75;5097598;28;19924;-76
2021/11/16 11:16:13;;;;;;;;;;;;;;;4.86;94.94;96492.91;5095588;28;19924;-76
2021/11/16 11:18:43;;;;;;;;;;;;;;;4.85;94.77;96488.72;5077244;28;19993;-76
2021/11/16 11:21:09;;;;;;;;;;;;;;;5.14;95.38;96484.22;5096874;28;20030;-76
2021/11/16 11:23:38;;;;;;;;;;;;;;;4.96;94.62;96488.16;5081603;28;20381;-75
2021/11/16 11:26:17;;;;;;;;;;;;;;;5.21;94.38;96479.81;5078600;28;19924;-77
2021/11/16 11:28:54;;;;;;;;;;;;;;;5.10;94.15;96472.56;5078612;28;19925;-76
2021/11/16 11:31:26;;;;;;;;;;;;;;;5.12;93.08;96468.78;5102702;28;20036;-75
2021/11/16 11:33:54;;;;;;;;;;;;;;;5.09;92.45;96470.97;5091430;28;20004;-76
2021/11/16 11:36:20;;;;;;;;;;;;;;;4.92;93.17;96468.69;5082192;28;19929;-76
2021/11/16 11:38:45;;;;;;;;;;;;;;;5.03;92.94;96471.75;5078488;28;19967;-76
2021/11/16 11:41:11;;;;;;;;;;;;;;;5.04;93.91;96458.50;5092031;28;19924;-76
2021/11/16 11:43:38;;;;;;;;;;;;;;;5.06;93.68;96460.91;5096729;28;20099;-76
2021/11/16 11:46:04;;;;;;;;;;;;;;;4.98;92.79;96457.47;5077784;28;20014;-77
2021/11/16 11:48:30;;;;;;;;;;;;;;;4.96;93.13;96456.06;5076114;28;20248;-76
2021/11/16 11:50:57;;;;;;;;;;;;;;;5.14;93.13;96453.72;5074538;28;20019;-76
2021/11/16 11:53:24;;;;;;;;;;;;;;;5.25;92.01;96449.75;5075878;28;20446;-78
2021/11/16 11:55:51;;;;;;;;;;;;;;;5.12;92.90;96457.53;5094166;28;19934;-75
2021/11/16 11:58:18;;;;;;;;;;;;;;;5.00;93.47;96450.28;5077340;28;19925;-77
2021/11/16 12:00:44;;;;;;;;;;;;;;;5.17;91.53;96452.56;5078763;28;19929;-76
2021/11/16 12:03:11;;;;;;;;;;;;;;;5.23;91.49;96452.56;5077302;28;19932;-76
2021/11/16 12:05:38;;;;;;;;;;;;;;;4.94;92.70;96451.03;5079613;28;19935;-76
2021/11/16 12:08:04;;;;;;;;;;;;;;;5.03;92.89;96446.47;5085438;28;19930;-76
2021/11/16 12:10:30;;;;;;;;;;;;;;;4.98;93.73;96444.44;5099186;28;19947;-75
2021/11/16 12:12:55;;;;;;;;;;;;;;;5.00;93.40;96447.69;5077223;28;20304;-77
2021/11/16 12:15:25;;;;;;;;;;;;;;;5.17;92.96;96444.72;5079495;28;19977;-76
2021/11/16 12:17:51;;;;;;;;;;;;;;;5.12;92.75;96442.69;5077333;28;19959;-76
2021/11/16 12:20:35;;;;;;;;;;;;;;;4.93;92.76;96444.22;5080217;28;19924;-76
2021/11/16 12:23:00;;;;;;;;;;;;;;;4.92;93.92;96445.22;5089470;28;19928;-76
2021/11/16 12:25:26;;;;;;;;;;;;;;;4.89;94.96;96445.59;5079370;28;19932;-77
2021/11/16 12:27:51;;;;;;;;;;;;;;;4.88;95.67;96438.78;5098320;28;19977;-75
2021/11/16 12:30:19;;;;;;;;;;;;;;;4.75;96.26;96438.72;5082024;28;20420;-76
2021/11/16 12:32:47;;;;;;;;;;;;;;;4.81;97.19;96448.38;5080540;28;20384;-75
2021/11/16 12:35:15;;;;;;;;;;;;;;;4.76;96.13;96436.94;5077313;28;19963;-77
2021/11/16 12:37:46;;;;;;;;;;;;;;;4.71;96.86;96438.31;5086717;28;19924;-76
2021/11/16 12:40:22;;;;;;;;;;;;;;;4.79;97.16;96442.56;5090427;28;19924;-77
2021/11/16 12:43:05;;;;;;;;;;;;;;;4.88;96.68;96438.78;5092621;28;19928;-76
2021/11/16 12:45:35;;;;;;;;;;;;;;;4.73;96.92;96433.72;5077268;28;19932;-76
2021/11/16 12:48:03;;;;;;;;;;;;;;;4.72;96.71;96444.31;5091073;28;19925;-76
2021/11/16 12:50:29;;;;;;;;;;;;;;;4.71;97.82;96445.31;5075160;28;19925;-76
2021/11/16 12:52:58;;;;;;;;;;;;;;;4.71;97.28;96447.94;5080238;28;20287;-77
2021/11/16 12:55:25;;;;;;;;;;;;;;;4.81;97.87;96435.34;5085445;28;19970;-77
2021/11/16 12:57:52;;;;;;;;;;;;;;;4.84;97.81;96441.97;5098015;28;19931;-77
2021/11/16 13:00:31;;;;;;;;;;;;;;;4.87;98.58;96447.59;5082863;28;19950;-77
2021/11/16 13:02:57;;;;;;;;;;;;;;;4.75;98.21;96451.75;5078108;28;19924;-77
2021/11/16 13:05:27;;;;;;;;;;;;;;;4.68;98.43;96438.72;5077094;28;20068;-76